sensor_id;sensor_type;location;lat;lon;timestamp;P1;durP1;ratioP1;P2;durP2;ratioP2
51602;SDS011;37954;51.980;5.850;2023-03-01T00:02:25;3.37;;;2.40;;
51602;SDS011;37954;51.980;5.850;2023-03-01T00:06:37;4.30;;;2.73;;
51602;SDS011;37954;51.980;5.850;2023-03-01T00:10:49;3.43;;;2.20;;
51602;SDS011;37954;51.980;5.850;2023-03-01T00:15:00;4.73;;;2.87;;
51602;SDS011;37954;51.980;5.850;2023-03-01T00:19:13;3.50;;;2.77;;
51602;SDS011;37954;51.980;5.850;2023-03-01T00:23:27;4.30;;;2.87;;
51602;SDS011;37954;51.980;5.850;2023-03-01T00:27:38;2.93;;;2.30;;
51602;SDS011;37954;51.980;5.850;2023-03-01T00:31:50;2.90;;;2.33;;
51602;SDS011;37954;51.980;5.850;2023-03-01T00:36:02;3.67;;;2.87;;
51602;SDS011;37954;51.980;5.850;2023-03-01T00:40:15;3.83;;;2.53;;
51602;SDS011;37954;51.980;5.850;2023-03-01T00:44:27;3.90;;;2.90;;
51602;SDS011;37954;51.980;5.850;2023-03-01T00:48:39;4.07;;;2.70;;
51602;SDS011;37954;51.980;5.850;2023-03-01T00:52:52;4.33;;;2.83;;
51602;SDS011;37954;51.980;5.850;2023-03-01T00:57:06;3.43;;;2.73;;
51602;SDS011;37954;51.980;5.850;2023-03-01T01:01:19;4.43;;;2.73;;
51602;SDS011;37954;51.980;5.850;2023-03-01T01:05:34;5.33;;;3.37;;
51602;SDS011;37954;51.980;5.850;2023-03-01T01:09:46;4.20;;;3.27;;
51602;SDS011;37954;51.980;5.850;2023-03-01T01:13:58;4.87;;;3.07;;
51602;SDS011;37954;51.980;5.850;2023-03-01T01:18:10;5.13;;;3.07;;
51602;SDS011;37954;51.980;5.850;2023-03-01T01:22:21;5.67;;;3.10;;
51602;SDS011;37954;51.980;5.850;2023-03-01T01:26:33;6.20;;;3.30;;
51602;SDS011;37954;51.980;5.850;2023-03-01T01:30:45;4.87;;;2.93;;
51602;SDS011;37954;51.980;5.850;2023-03-01T01:34:57;5.50;;;3.03;;
51602;SDS011;37954;51.980;5.850;2023-03-01T01:39:09;5.77;;;3.67;;
51602;SDS011;37954;51.980;5.850;2023-03-01T01:43:25;5.53;;;3.77;;
51602;SDS011;37954;51.980;5.850;2023-03-01T01:47:39;4.90;;;3.40;;
51602;SDS011;37954;51.980;5.850;2023-03-01T01:51:51;5.43;;;3.40;;
51602;SDS011;37954;51.980;5.850;2023-03-01T01:56:08;3.90;;;2.90;;
51602;SDS011;37954;51.980;5.850;2023-03-01T02:00:24;5.73;;;3.40;;
51602;SDS011;37954;51.980;5.850;2023-03-01T02:04:37;4.47;;;3.53;;
51602;SDS011;37954;51.980;5.850;2023-03-01T02:08:50;6.60;;;3.60;;
51602;SDS011;37954;51.980;5.850;2023-03-01T02:13:04;5.03;;;3.50;;
51602;SDS011;37954;51.980;5.850;2023-03-01T02:17:16;5.33;;;3.60;;
51602;SDS011;37954;51.980;5.850;2023-03-01T02:26:04;4.80;;;3.20;;
51602;SDS011;37954;51.980;5.850;2023-03-01T02:30:27;4.33;;;3.30;;
51602;SDS011;37954;51.980;5.850;2023-03-01T02:34:40;5.03;;;3.07;;
51602;SDS011;37954;51.980;5.850;2023-03-01T02:38:53;6.87;;;3.37;;
51602;SDS011;37954;51.980;5.850;2023-03-01T02:43:08;5.10;;;3.40;;
51602;SDS011;37954;51.980;5.850;2023-03-01T02:47:24;4.50;;;3.27;;
51602;SDS011;37954;51.980;5.850;2023-03-01T02:51:47;6.43;;;3.73;;
51602;SDS011;37954;51.980;5.850;2023-03-01T02:56:04;5.57;;;3.57;;
51602;SDS011;37954;51.980;5.850;2023-03-01T03:00:20;6.87;;;3.70;;
51602;SDS011;37954;51.980;5.850;2023-03-01T03:04:36;7.07;;;4.00;;
51602;SDS011;37954;51.980;5.850;2023-03-01T03:08:48;6.33;;;3.47;;
51602;SDS011;37954;51.980;5.850;2023-03-01T03:13:01;7.03;;;3.97;;
51602;SDS011;37954;51.980;5.850;2023-03-01T03:17:17;7.97;;;4.00;;
51602;SDS011;37954;51.980;5.850;2023-03-01T03:21:28;4.67;;;3.10;;
51602;SDS011;37954;51.980;5.850;2023-03-01T03:25:40;5.27;;;3.50;;
51602;SDS011;37954;51.980;5.850;2023-03-01T03:29:51;5.97;;;3.63;;
51602;SDS011;37954;51.980;5.850;2023-03-01T03:34:03;6.97;;;3.77;;
51602;SDS011;37954;51.980;5.850;2023-03-01T03:38:16;5.40;;;3.50;;
51602;SDS011;37954;51.980;5.850;2023-03-01T03:42:30;6.37;;;3.60;;
51602;SDS011;37954;51.980;5.850;2023-03-01T03:46:41;5.00;;;3.13;;
51602;SDS011;37954;51.980;5.850;2023-03-01T03:50:54;5.27;;;3.20;;
51602;SDS011;37954;51.980;5.850;2023-03-01T03:55:07;5.53;;;3.17;;
51602;SDS011;37954;51.980;5.850;2023-03-01T03:59:20;5.50;;;3.23;;
51602;SDS011;37954;51.980;5.850;2023-03-01T04:03:32;3.87;;;2.90;;
51602;SDS011;37954;51.980;5.850;2023-03-01T04:07:49;5.50;;;3.17;;
51602;SDS011;37954;51.980;5.850;2023-03-01T04:12:12;3.90;;;2.93;;
51602;SDS011;37954;51.980;5.850;2023-03-01T04:16:24;6.07;;;3.30;;
51602;SDS011;37954;51.980;5.850;2023-03-01T04:20:36;4.40;;;2.90;;
51602;SDS011;37954;51.980;5.850;2023-03-01T04:24:48;5.53;;;3.27;;
51602;SDS011;37954;51.980;5.850;2023-03-01T04:29:00;4.83;;;3.30;;
51602;SDS011;37954;51.980;5.850;2023-03-01T04:33:11;5.03;;;2.93;;
51602;SDS011;37954;51.980;5.850;2023-03-01T04:37:23;3.60;;;2.47;;
51602;SDS011;37954;51.980;5.850;2023-03-01T04:41:35;5.77;;;3.20;;
51602;SDS011;37954;51.980;5.850;2023-03-01T04:45:46;4.63;;;2.70;;
51602;SDS011;37954;51.980;5.850;2023-03-01T04:49:58;4.00;;;3.17;;
51602;SDS011;37954;51.980;5.850;2023-03-01T04:54:10;4.83;;;2.97;;
51602;SDS011;37954;51.980;5.850;2023-03-01T04:58:25;3.77;;;2.83;;
51602;SDS011;37954;51.980;5.850;2023-03-01T05:02:38;3.87;;;3.13;;
51602;SDS011;37954;51.980;5.850;2023-03-01T05:06:50;3.83;;;2.93;;
51602;SDS011;37954;51.980;5.850;2023-03-01T05:11:02;4.67;;;2.93;;
51602;SDS011;37954;51.980;5.850;2023-03-01T05:15:13;4.33;;;2.93;;
51602;SDS011;37954;51.980;5.850;2023-03-01T05:19:25;5.70;;;2.87;;
51602;SDS011;37954;51.980;5.850;2023-03-01T05:23:38;4.97;;;3.17;;
51602;SDS011;37954;51.980;5.850;2023-03-01T05:27:50;5.40;;;2.67;;
51602;SDS011;37954;51.980;5.850;2023-03-01T05:32:02;5.33;;;3.10;;
51602;SDS011;37954;51.980;5.850;2023-03-01T05:36:14;5.33;;;3.10;;
51602;SDS011;37954;51.980;5.850;2023-03-01T05:40:26;4.73;;;2.90;;
51602;SDS011;37954;51.980;5.850;2023-03-01T05:44:37;4.20;;;2.80;;
51602;SDS011;37954;51.980;5.850;2023-03-01T05:48:49;5.13;;;3.20;;
51602;SDS011;37954;51.980;5.850;2023-03-01T05:53:05;6.77;;;3.07;;
51602;SDS011;37954;51.980;5.850;2023-03-01T05:57:19;6.10;;;3.20;;
51602;SDS011;37954;51.980;5.850;2023-03-01T06:01:32;4.53;;;2.90;;
51602;SDS011;37954;51.980;5.850;2023-03-01T06:05:44;4.93;;;3.30;;
51602;SDS011;37954;51.980;5.850;2023-03-01T06:09:55;5.73;;;3.10;;
51602;SDS011;37954;51.980;5.850;2023-03-01T06:14:07;6.90;;;3.50;;
51602;SDS011;37954;51.980;5.850;2023-03-01T06:18:19;5.40;;;3.17;;
51602;SDS011;37954;51.980;5.850;2023-03-01T06:22:31;6.57;;;3.10;;
51602;SDS011;37954;51.980;5.850;2023-03-01T06:26:42;6.00;;;2.87;;
51602;SDS011;37954;51.980;5.850;2023-03-01T06:30:54;6.37;;;3.23;;
51602;SDS011;37954;51.980;5.850;2023-03-01T06:35:05;5.80;;;3.27;;
51602;SDS011;37954;51.980;5.850;2023-03-01T06:39:17;7.73;;;4.43;;
51602;SDS011;37954;51.980;5.850;2023-03-01T06:43:30;39.43;;;9.37;;
51602;SDS011;37954;51.980;5.850;2023-03-01T06:47:42;45.40;;;11.40;;
51602;SDS011;37954;51.980;5.850;2023-03-01T06:51:53;13.80;;;6.23;;
51602;SDS011;37954;51.980;5.850;2023-03-01T06:56:05;9.00;;;4.57;;
51602;SDS011;37954;51.980;5.850;2023-03-01T07:00:17;7.77;;;4.07;;
51602;SDS011;37954;51.980;5.850;2023-03-01T07:04:29;5.80;;;3.90;;
51602;SDS011;37954;51.980;5.850;2023-03-01T07:08:41;5.90;;;3.47;;
51602;SDS011;37954;51.980;5.850;2023-03-01T07:12:56;5.20;;;3.33;;
51602;SDS011;37954;51.980;5.850;2023-03-01T07:17:09;4.63;;;3.20;;
51602;SDS011;37954;51.980;5.850;2023-03-01T07:21:20;6.90;;;3.83;;
51602;SDS011;37954;51.980;5.850;2023-03-01T07:25:32;5.60;;;3.30;;
51602;SDS011;37954;51.980;5.850;2023-03-01T07:29:44;4.80;;;3.30;;
51602;SDS011;37954;51.980;5.850;2023-03-01T07:33:55;5.60;;;3.43;;
51602;SDS011;37954;51.980;5.850;2023-03-01T07:38:07;4.30;;;2.97;;
51602;SDS011;37954;51.980;5.850;2023-03-01T07:42:19;5.40;;;3.63;;
51602;SDS011;37954;51.980;5.850;2023-03-01T07:46:40;6.43;;;3.70;;
51602;SDS011;37954;51.980;5.850;2023-03-01T07:50:52;5.53;;;2.90;;
51602;SDS011;37954;51.980;5.850;2023-03-01T07:55:03;5.13;;;3.20;;
51602;SDS011;37954;51.980;5.850;2023-03-01T07:59:15;6.13;;;3.43;;
51602;SDS011;37954;51.980;5.850;2023-03-01T08:03:27;9.73;;;3.53;;
51602;SDS011;37954;51.980;5.850;2023-03-01T08:07:39;5.23;;;3.63;;
51602;SDS011;37954;51.980;5.850;2023-03-01T08:11:50;3.53;;;3.07;;
51602;SDS011;37954;51.980;5.850;2023-03-01T08:16:06;5.53;;;3.60;;
51602;SDS011;37954;51.980;5.850;2023-03-01T08:20:21;5.13;;;3.35;;
51602;SDS011;37954;51.980;5.850;2023-03-01T08:24:32;3.97;;;3.25;;
51602;SDS011;37954;51.980;5.850;2023-03-01T08:28:44;4.80;;;3.22;;
51602;SDS011;37954;51.980;5.850;2023-03-01T08:32:56;5.13;;;3.60;;
51602;SDS011;37954;51.980;5.850;2023-03-01T08:37:08;4.35;;;3.40;;
51602;SDS011;37954;51.980;5.850;2023-03-01T08:41:21;4.10;;;3.15;;
51602;SDS011;37954;51.980;5.850;2023-03-01T08:45:32;4.72;;;2.80;;
51602;SDS011;37954;51.980;5.850;2023-03-01T08:49:44;4.28;;;3.08;;
51602;SDS011;37954;51.980;5.850;2023-03-01T08:53:56;5.28;;;3.00;;
51602;SDS011;37954;51.980;5.850;2023-03-01T08:58:07;5.05;;;3.10;;
51602;SDS011;37954;51.980;5.850;2023-03-01T09:02:19;4.57;;;2.72;;
51602;SDS011;37954;51.980;5.850;2023-03-01T09:06:32;3.92;;;2.72;;
51602;SDS011;37954;51.980;5.850;2023-03-01T09:10:44;4.78;;;2.50;;
51602;SDS011;37954;51.980;5.850;2023-03-01T09:14:56;7.63;;;2.97;;
51602;SDS011;37954;51.980;5.850;2023-03-01T09:19:08;5.10;;;2.80;;
51602;SDS011;37954;51.980;5.850;2023-03-01T09:23:20;4.32;;;2.58;;
51602;SDS011;37954;51.980;5.850;2023-03-01T09:27:32;4.38;;;2.92;;
51602;SDS011;37954;51.980;5.850;2023-03-01T09:31:44;2.95;;;2.40;;
51602;SDS011;37954;51.980;5.850;2023-03-01T09:35:59;3.95;;;2.70;;
51602;SDS011;37954;51.980;5.850;2023-03-01T09:40:14;4.18;;;2.90;;
51602;SDS011;37954;51.980;5.850;2023-03-01T09:48:49;4.82;;;3.50;;
51602;SDS011;37954;51.980;5.850;2023-03-01T09:53:05;4.38;;;3.75;;
51602;SDS011;37954;51.980;5.850;2023-03-01T10:02:48;5.07;;;3.88;;
51602;SDS011;37954;51.980;5.850;2023-03-01T10:06:36;5.57;;;4.60;;
51602;SDS011;37954;51.980;5.850;2023-03-01T10:10:50;4.60;;;3.92;;
51602;SDS011;37954;51.980;5.850;2023-03-01T10:15:08;5.80;;;4.00;;
51602;SDS011;37954;51.980;5.850;2023-03-01T10:19:41;4.55;;;3.72;;
51602;SDS011;37954;51.980;5.850;2023-03-01T10:23:54;5.10;;;3.40;;
51602;SDS011;37954;51.980;5.850;2023-03-01T10:32:23;5.32;;;3.80;;
51602;SDS011;37954;51.980;5.850;2023-03-01T10:36:36;7.43;;;3.70;;
51602;SDS011;37954;51.980;5.850;2023-03-01T10:40:57;5.63;;;2.92;;
51602;SDS011;37954;51.980;5.850;2023-03-01T10:49:30;4.28;;;3.25;;
51602;SDS011;37954;51.980;5.850;2023-03-01T10:53:43;4.18;;;3.22;;
51602;SDS011;37954;51.980;5.850;2023-03-01T10:58:19;4.60;;;3.30;;
51602;SDS011;37954;51.980;5.850;2023-03-01T11:02:32;5.13;;;3.45;;
51602;SDS011;37954;51.980;5.850;2023-03-01T11:06:45;4.55;;;3.22;;
51602;SDS011;37954;51.980;5.850;2023-03-01T11:15:30;3.55;;;2.80;;
51602;SDS011;37954;51.980;5.850;2023-03-01T11:19:42;4.13;;;3.45;;
51602;SDS011;37954;51.980;5.850;2023-03-01T11:24:04;4.35;;;2.83;;
51602;SDS011;37954;51.980;5.850;2023-03-01T11:28:21;4.47;;;2.97;;
51602;SDS011;37954;51.980;5.850;2023-03-01T11:32:45;3.40;;;2.75;;
51602;SDS011;37954;51.980;5.850;2023-03-01T11:37:08;4.45;;;3.40;;
51602;SDS011;37954;51.980;5.850;2023-03-01T11:41:30;4.55;;;3.40;;
51602;SDS011;37954;51.980;5.850;2023-03-01T11:50:24;4.75;;;2.90;;
51602;SDS011;37954;51.980;5.850;2023-03-01T12:19:01;3.22;;;2.92;;
51602;SDS011;37954;51.980;5.850;2023-03-01T12:54:30;4.28;;;3.20;;
51602;SDS011;37954;51.980;5.850;2023-03-01T13:07:57;5.13;;;3.25;;
51602;SDS011;37954;51.980;5.850;2023-03-01T13:16:53;4.63;;;3.20;;
51602;SDS011;37954;51.980;5.850;2023-03-01T13:21:06;4.88;;;3.08;;
51602;SDS011;37954;51.980;5.850;2023-03-01T13:25:19;3.83;;;3.10;;
51602;SDS011;37954;51.980;5.850;2023-03-01T13:29:43;4.35;;;3.05;;
51602;SDS011;37954;51.980;5.850;2023-03-01T13:34:01;4.63;;;2.70;;
51602;SDS011;37954;51.980;5.850;2023-03-01T13:43:29;4.20;;;2.70;;
51602;SDS011;37954;51.980;5.850;2023-03-01T13:52:42;4.80;;;3.00;;
51602;SDS011;37954;51.980;5.850;2023-03-01T13:57:12;3.30;;;2.65;;
51602;SDS011;37954;51.980;5.850;2023-03-01T14:01:35;3.13;;;2.70;;
51602;SDS011;37954;51.980;5.850;2023-03-01T14:10:28;5.63;;;2.90;;
51602;SDS011;37954;51.980;5.850;2023-03-01T14:14:48;5.35;;;3.28;;
51602;SDS011;37954;51.980;5.850;2023-03-01T14:19:21;4.45;;;2.83;;
51602;SDS011;37954;51.980;5.850;2023-03-01T14:23:44;3.97;;;3.13;;
51602;SDS011;37954;51.980;5.850;2023-03-01T14:32:28;5.03;;;3.00;;
51602;SDS011;37954;51.980;5.850;2023-03-01T14:36:42;3.53;;;2.75;;
51602;SDS011;37954;51.980;5.850;2023-03-01T14:40:54;5.50;;;2.92;;
51602;SDS011;37954;51.980;5.850;2023-03-01T14:45:09;3.57;;;2.53;;
51602;SDS011;37954;51.980;5.850;2023-03-01T14:49:25;5.17;;;3.10;;
51602;SDS011;37954;51.980;5.850;2023-03-01T14:53:41;4.73;;;2.70;;
51602;SDS011;37954;51.980;5.850;2023-03-01T15:02:38;4.20;;;2.70;;
51602;SDS011;37954;51.980;5.850;2023-03-01T15:06:51;3.50;;;2.70;;
51602;SDS011;37954;51.980;5.850;2023-03-01T15:11:05;4.50;;;2.80;;
51602;SDS011;37954;51.980;5.850;2023-03-01T15:15:36;3.47;;;3.07;;
51602;SDS011;37954;51.980;5.850;2023-03-01T15:19:51;3.03;;;2.63;;
51602;SDS011;37954;51.980;5.850;2023-03-01T15:28:24;4.17;;;2.87;;
51602;SDS011;37954;51.980;5.850;2023-03-01T15:32:41;3.63;;;2.60;;
51602;SDS011;37954;51.980;5.850;2023-03-01T15:36:54;3.33;;;2.30;;
51602;SDS011;37954;51.980;5.850;2023-03-01T15:45:58;3.97;;;2.10;;
51602;SDS011;37954;51.980;5.850;2023-03-01T15:50:29;3.63;;;2.60;;
51602;SDS011;37954;51.980;5.850;2023-03-01T15:54:46;3.47;;;2.23;;
51602;SDS011;37954;51.980;5.850;2023-03-01T15:58:59;3.30;;;2.30;;
51602;SDS011;37954;51.980;5.850;2023-03-01T16:03:11;3.83;;;2.40;;
51602;SDS011;37954;51.980;5.850;2023-03-01T16:07:23;2.57;;;2.20;;
51602;SDS011;37954;51.980;5.850;2023-03-01T16:11:35;2.70;;;2.30;;
51602;SDS011;37954;51.980;5.850;2023-03-01T16:15:48;3.20;;;2.20;;
51602;SDS011;37954;51.980;5.850;2023-03-01T16:20:00;4.13;;;2.40;;
51602;SDS011;37954;51.980;5.850;2023-03-01T16:24:12;2.73;;;2.30;;
51602;SDS011;37954;51.980;5.850;2023-03-01T16:28:24;3.37;;;2.93;;
51602;SDS011;37954;51.980;5.850;2023-03-01T16:32:40;4.10;;;2.40;;
51602;SDS011;37954;51.980;5.850;2023-03-01T16:36:53;4.07;;;2.47;;
51602;SDS011;37954;51.980;5.850;2023-03-01T16:41:04;3.67;;;2.37;;
51602;SDS011;37954;51.980;5.850;2023-03-01T16:45:17;4.53;;;2.43;;
51602;SDS011;37954;51.980;5.850;2023-03-01T16:49:35;2.97;;;2.23;;
51602;SDS011;37954;51.980;5.850;2023-03-01T16:53:53;3.37;;;2.13;;
51602;SDS011;37954;51.980;5.850;2023-03-01T16:58:05;5.90;;;2.37;;
51602;SDS011;37954;51.980;5.850;2023-03-01T17:02:17;2.40;;;2.20;;
51602;SDS011;37954;51.980;5.850;2023-03-01T17:06:31;3.13;;;2.10;;
51602;SDS011;37954;51.980;5.850;2023-03-01T17:10:43;2.97;;;2.10;;
51602;SDS011;37954;51.980;5.850;2023-03-01T17:14:55;2.70;;;2.10;;
51602;SDS011;37954;51.980;5.850;2023-03-01T17:19:07;3.43;;;2.40;;
51602;SDS011;37954;51.980;5.850;2023-03-01T17:23:18;3.63;;;2.37;;
51602;SDS011;37954;51.980;5.850;2023-03-01T17:27:30;3.27;;;2.00;;
51602;SDS011;37954;51.980;5.850;2023-03-01T17:31:45;3.40;;;2.20;;
51602;SDS011;37954;51.980;5.850;2023-03-01T17:35:58;2.30;;;2.07;;
51602;SDS011;37954;51.980;5.850;2023-03-01T17:40:10;3.97;;;2.53;;
51602;SDS011;37954;51.980;5.850;2023-03-01T17:44:22;3.67;;;2.33;;
51602;SDS011;37954;51.980;5.850;2023-03-01T17:48:34;3.33;;;2.23;;
51602;SDS011;37954;51.980;5.850;2023-03-01T17:52:47;4.50;;;2.60;;
51602;SDS011;37954;51.980;5.850;2023-03-01T17:57:00;4.53;;;2.87;;
51602;SDS011;37954;51.980;5.850;2023-03-01T18:01:12;3.67;;;2.90;;
51602;SDS011;37954;51.980;5.850;2023-03-01T18:05:26;4.40;;;2.90;;
51602;SDS011;37954;51.980;5.850;2023-03-01T18:09:41;6.10;;;4.00;;
51602;SDS011;37954;51.980;5.850;2023-03-01T18:13:53;5.70;;;3.90;;
51602;SDS011;37954;51.980;5.850;2023-03-01T18:18:05;10.00;;;6.07;;
51602;SDS011;37954;51.980;5.850;2023-03-01T18:22:17;5.93;;;3.63;;
51602;SDS011;37954;51.980;5.850;2023-03-01T18:26:29;4.60;;;3.60;;
51602;SDS011;37954;51.980;5.850;2023-03-01T18:30:41;6.03;;;2.60;;
51602;SDS011;37954;51.980;5.850;2023-03-01T18:34:53;4.17;;;3.00;;
51602;SDS011;37954;51.980;5.850;2023-03-01T18:39:05;3.00;;;2.60;;
51602;SDS011;37954;51.980;5.850;2023-03-01T18:43:17;5.03;;;2.93;;
51602;SDS011;37954;51.980;5.850;2023-03-01T18:52:06;3.57;;;3.07;;
51602;SDS011;37954;51.980;5.850;2023-03-01T18:56:17;6.00;;;3.80;;
51602;SDS011;37954;51.980;5.850;2023-03-01T19:00:30;4.07;;;3.00;;
51602;SDS011;37954;51.980;5.850;2023-03-01T19:04:42;6.43;;;3.27;;
51602;SDS011;37954;51.980;5.850;2023-03-01T19:08:54;5.47;;;3.57;;
51602;SDS011;37954;51.980;5.850;2023-03-01T19:13:06;6.07;;;3.33;;
51602;SDS011;37954;51.980;5.850;2023-03-01T19:17:20;6.17;;;3.23;;
51602;SDS011;37954;51.980;5.850;2023-03-01T19:21:32;3.90;;;3.23;;
51602;SDS011;37954;51.980;5.850;2023-03-01T19:25:44;4.23;;;2.83;;
51602;SDS011;37954;51.980;5.850;2023-03-01T19:29:56;4.87;;;2.70;;
51602;SDS011;37954;51.980;5.850;2023-03-01T19:34:08;4.13;;;2.80;;
51602;SDS011;37954;51.980;5.850;2023-03-01T19:38:22;5.13;;;3.00;;
51602;SDS011;37954;51.980;5.850;2023-03-01T19:42:34;3.00;;;2.37;;
51602;SDS011;37954;51.980;5.850;2023-03-01T19:46:46;4.33;;;3.13;;
51602;SDS011;37954;51.980;5.850;2023-03-01T19:50:58;4.73;;;3.10;;
51602;SDS011;37954;51.980;5.850;2023-03-01T19:55:10;4.93;;;3.23;;
51602;SDS011;37954;51.980;5.850;2023-03-01T19:59:21;5.80;;;3.03;;
51602;SDS011;37954;51.980;5.850;2023-03-01T20:03:34;3.97;;;2.47;;
51602;SDS011;37954;51.980;5.850;2023-03-01T20:07:46;4.90;;;3.10;;
51602;SDS011;37954;51.980;5.850;2023-03-01T20:11:58;4.33;;;3.10;;
51602;SDS011;37954;51.980;5.850;2023-03-01T20:16:10;3.73;;;2.73;;
51602;SDS011;37954;51.980;5.850;2023-03-01T20:20:25;4.20;;;2.77;;
51602;SDS011;37954;51.980;5.850;2023-03-01T20:24:37;3.60;;;2.73;;
51602;SDS011;37954;51.980;5.850;2023-03-01T20:28:50;5.30;;;2.73;;
51602;SDS011;37954;51.980;5.850;2023-03-01T20:33:02;5.80;;;2.83;;
51602;SDS011;37954;51.980;5.850;2023-03-01T20:37:14;4.10;;;2.50;;
51602;SDS011;37954;51.980;5.850;2023-03-01T20:41:26;3.80;;;2.43;;
51602;SDS011;37954;51.980;5.850;2023-03-01T20:45:38;5.77;;;2.87;;
51602;SDS011;37954;51.980;5.850;2023-03-01T20:49:50;6.17;;;2.90;;
51602;SDS011;37954;51.980;5.850;2023-03-01T20:58:39;4.63;;;2.60;;
51602;SDS011;37954;51.980;5.850;2023-03-01T21:02:52;4.00;;;2.50;;
51602;SDS011;37954;51.980;5.850;2023-03-01T21:07:04;4.10;;;2.97;;
51602;SDS011;37954;51.980;5.850;2023-03-01T21:11:16;4.80;;;2.93;;
51602;SDS011;37954;51.980;5.850;2023-03-01T21:15:29;4.80;;;2.73;;
51602;SDS011;37954;51.980;5.850;2023-03-01T21:19:42;3.83;;;2.70;;
51602;SDS011;37954;51.980;5.850;2023-03-01T21:23:54;6.27;;;3.10;;
51602;SDS011;37954;51.980;5.850;2023-03-01T21:28:06;4.17;;;2.57;;
51602;SDS011;37954;51.980;5.850;2023-03-01T21:32:24;6.93;;;2.77;;
51602;SDS011;37954;51.980;5.850;2023-03-01T21:36:35;6.23;;;3.40;;
51602;SDS011;37954;51.980;5.850;2023-03-01T21:40:47;4.67;;;3.07;;
51602;SDS011;37954;51.980;5.850;2023-03-01T21:44:59;4.43;;;2.77;;
51602;SDS011;37954;51.980;5.850;2023-03-01T21:49:10;5.70;;;2.90;;
51602;SDS011;37954;51.980;5.850;2023-03-01T21:53:23;3.27;;;2.50;;
51602;SDS011;37954;51.980;5.850;2023-03-01T21:57:35;4.13;;;2.80;;
51602;SDS011;37954;51.980;5.850;2023-03-01T22:01:53;4.60;;;2.80;;
51602;SDS011;37954;51.980;5.850;2023-03-01T22:06:05;4.70;;;2.77;;
51602;SDS011;37954;51.980;5.850;2023-03-01T22:10:17;6.37;;;3.03;;
51602;SDS011;37954;51.980;5.850;2023-03-01T22:14:37;5.27;;;3.07;;
51602;SDS011;37954;51.980;5.850;2023-03-01T22:18:48;6.07;;;3.50;;
51602;SDS011;37954;51.980;5.850;2023-03-01T22:23:00;4.03;;;2.80;;
51602;SDS011;37954;51.980;5.850;2023-03-01T22:27:12;6.77;;;3.60;;
51602;SDS011;37954;51.980;5.850;2023-03-01T22:31:24;5.20;;;3.30;;
51602;SDS011;37954;51.980;5.850;2023-03-01T22:35:39;6.80;;;3.43;;
51602;SDS011;37954;51.980;5.850;2023-03-01T22:39:52;5.33;;;3.70;;
51602;SDS011;37954;51.980;5.850;2023-03-01T22:44:04;7.23;;;3.93;;
51602;SDS011;37954;51.980;5.850;2023-03-01T22:48:15;7.47;;;4.23;;
51602;SDS011;37954;51.980;5.850;2023-03-01T22:52:27;8.83;;;4.40;;
51602;SDS011;37954;51.980;5.850;2023-03-01T22:56:39;8.73;;;4.97;;
51602;SDS011;37954;51.980;5.850;2023-03-01T23:00:53;11.23;;;5.67;;
51602;SDS011;37954;51.980;5.850;2023-03-01T23:05:05;8.37;;;5.17;;
51602;SDS011;37954;51.980;5.850;2023-03-01T23:09:17;8.07;;;5.67;;
51602;SDS011;37954;51.980;5.850;2023-03-01T23:13:37;10.67;;;5.03;;
51602;SDS011;37954;51.980;5.850;2023-03-01T23:17:49;12.27;;;6.10;;
51602;SDS011;37954;51.980;5.850;2023-03-01T23:22:00;9.77;;;6.30;;
51602;SDS011;37954;51.980;5.850;2023-03-01T23:26:13;12.73;;;6.83;;
51602;SDS011;37954;51.980;5.850;2023-03-01T23:30:25;13.07;;;8.00;;
51602;SDS011;37954;51.980;5.850;2023-03-01T23:34:37;15.07;;;8.07;;
51602;SDS011;37954;51.980;5.850;2023-03-01T23:38:58;14.93;;;8.20;;
51602;SDS011;37954;51.980;5.850;2023-03-01T23:43:13;16.80;;;9.03;;
51602;SDS011;37954;51.980;5.850;2023-03-01T23:47:25;15.97;;;9.57;;
51602;SDS011;37954;51.980;5.850;2023-03-01T23:51:38;15.50;;;9.43;;
51602;SDS011;37954;51.980;5.850;2023-03-01T23:55:54;20.93;;;11.10;;
